Time;durP1;ratioP1;P1;durP2;ratioP2;P2;SDS_P1;SDS_P2;PMS_P1;PMS_P2;Temp;Humidity;BMP_temperature;BMP_pressure;BME280_temperature;BME280_humidity;BME280_pressure;Samples;Min_cycle;Max_cycle;Signal;HPM_P1;HPM_P2
2022/01/27 00:03:19;;;;;;;58.67;23.53;;;0.30;99.90;;;;;;4373092;28;654956;-71
2022/01/27 00:06:09;;;;;;;59.27;25.20;;;0.20;99.90;;;;;;4373644;28;654744;-71
2022/01/27 00:09:05;;;;;;;60.00;24.43;;;0.20;99.90;;;;;;4377539;28;654660;-71
2022/01/27 00:11:54;;;;;;;50.77;22.57;;;0.30;99.90;;;;;;4351033;28;655538;-72
2022/01/27 00:14:46;;;;;;;53.00;22.03;;;0.30;99.90;;;;;;4377470;28;654009;-71
2022/01/27 00:17:38;;;;;;;38.23;17.20;;;0.30;99.90;;;;;;4376827;28;655530;-71
2022/01/27 00:20:26;;;;;;;55.60;24.00;;;0.20;99.90;;;;;;4393218;28;654726;-72
2022/01/27 00:23:14;;;;;;;41.83;17.73;;;0.20;99.90;;;;;;4397633;28;654423;-71
2022/01/27 00:26:02;;;;;;;46.93;20.97;;;0.20;99.90;;;;;;4376805;28;655165;-71
2022/01/27 00:28:51;;;;;;;50.20;21.63;;;0.20;99.90;;;;;;4394956;28;655170;-71
2022/01/27 00:31:39;;;;;;;41.00;17.10;;;0.10;99.90;;;;;;4378922;28;655607;-72
2022/01/27 00:34:26;;;;;;;46.38;19.80;;;0.10;99.90;;;;;;4383169;28;655734;-72
2022/01/27 00:37:14;;;;;;;46.50;17.87;;;0.10;99.90;;;;;;4453200;27;656731;-71
2022/01/27 00:40:02;;;;;;;39.80;18.87;;;0.10;99.90;;;;;;4467760;27;655270;-71
2022/01/27 00:42:49;;;;;;;41.37;17.97;;;0.10;99.90;;;;;;4486954;27;656034;-71
2022/01/27 00:45:38;;;;;;;33.97;13.73;;;0.10;99.90;;;;;;4467888;27;655023;-72
2022/01/27 00:48:26;;;;;;;35.93;15.40;;;0.10;99.90;;;;;;4480746;27;655509;-72
2022/01/27 00:51:20;;;;;;;41.50;17.67;;;0.10;99.90;;;;;;4487252;27;655942;-71
2022/01/27 00:54:13;;;;;;;39.03;17.47;;;0.20;99.90;;;;;;4468970;27;655209;-71
2022/01/27 00:57:08;;;;;;;26.93;11.50;;;0.10;99.90;;;;;;4464723;27;655635;-72
2022/01/27 00:59:58;;;;;;;37.47;16.47;;;0.10;99.90;;;;;;4464228;27;655904;-72
2022/01/27 01:02:52;;;;;;;42.47;17.93;;;0.10;99.90;;;;;;4454118;27;655420;-72
2022/01/27 01:14:55;;;;;;;34.83;15.43;;;0.10;99.90;;;;;;4441390;27;655733;-72
2022/01/27 01:21:04;;;;;;;32.83;12.80;;;0.10;99.90;;;;;;4464261;27;655782;-71
2022/01/27 01:30:19;;;;;;;34.55;13.52;;;0.20;99.90;;;;;;4460331;27;655342;-72
2022/01/27 01:33:10;;;;;;;34.57;15.83;;;0.20;99.90;;;;;;4444518;27;656131;-72
2022/01/27 01:36:12;;;;;;;37.90;15.83;;;0.20;99.90;;;;;;4463730;27;656040;-71
2022/01/27 01:39:00;;;;;;;34.13;13.87;;;0.10;99.90;;;;;;4463320;27;655586;-71
2022/01/27 01:41:47;;;;;;;28.77;12.77;;;0.20;99.90;;;;;;4467520;27;655488;-71
2022/01/27 01:44:35;;;;;;;42.30;16.83;;;0.20;99.90;;;;;;4486235;27;656149;-71
2022/01/27 01:47:25;;;;;;;38.77;17.67;;;0.20;99.90;;;;;;4466875;27;655509;-71
2022/01/27 01:50:13;;;;;;;35.65;15.50;;;0.10;99.90;;;;;;4468050;27;656384;-72
2022/01/27 01:53:02;;;;;;;47.10;18.43;;;0.10;99.90;;;;;;4486309;27;655870;-70
2022/01/27 01:55:49;;;;;;;44.20;18.00;;;0.10;99.90;;;;;;4463767;27;656337;-72
2022/01/27 01:58:37;;;;;;;50.33;17.50;;;0.10;99.90;;;;;;4467426;27;655571;-71
2022/01/27 02:01:24;;;;;;;53.17;20.40;;;0.10;99.90;;;;;;4486571;27;656527;-71
2022/01/27 02:04:12;;;;;;;40.43;17.70;;;0.10;99.90;;;;;;4467086;27;655998;-72
2022/01/27 02:07:03;;;;;;;50.03;21.30;;;0.10;99.90;;;;;;4486472;27;656330;-71
2022/01/27 02:10:07;;;;;;;54.73;20.83;;;0.10;99.90;;;;;;4463066;27;656538;-72
2022/01/27 02:19:10;;;;;;;55.13;24.03;;;0.10;99.90;;;;;;4460713;27;656390;-71
2022/01/27 02:22:00;;;;;;;52.97;23.70;;;0.10;99.90;;;;;;4467485;27;655872;-72
2022/01/27 02:24:48;;;;;;;52.47;22.00;;;0.10;99.90;;;;;;4467038;27;655513;-71
2022/01/27 02:27:36;;;;;;;37.73;17.30;;;0.10;99.90;;;;;;4485620;27;655579;-71
2022/01/27 02:30:23;;;;;;;45.90;20.13;;;0.00;99.90;;;;;;4463082;27;656815;-71
2022/01/27 02:33:11;;;;;;;47.47;19.57;;;0.00;99.90;;;;;;4476458;27;655618;-71
2022/01/27 02:35:59;;;;;;;51.33;19.80;;;0.00;99.90;;;;;;4489711;27;657482;-71
2022/01/27 02:38:48;;;;;;;51.80;21.17;;;0.00;99.90;;;;;;4466599;27;655798;-71
2022/01/27 02:41:38;;;;;;;42.30;18.97;;;0.00;99.90;;;;;;4485535;27;656104;-71
2022/01/27 02:44:29;;;;;;;57.20;23.67;;;0.00;99.90;;;;;;4438380;27;657498;-70
2022/01/27 02:47:17;;;;;;;49.17;21.17;;;0.00;99.90;;;;;;4421320;28;655761;-71
2022/01/27 02:50:05;;;;;;;63.00;26.20;;;0.00;99.90;;;;;;4465993;28;656210;-71
2022/01/27 02:52:53;;;;;;;69.23;29.50;;;0.00;99.90;;;;;;4446927;28;655904;-71
2022/01/27 02:55:42;;;;;;;66.10;27.42;;;0.00;99.90;;;;;;4466039;28;655455;-71
2022/01/27 02:58:29;;;;;;;63.27;27.57;;;0.00;99.90;;;;;;4443700;28;656285;-71
2022/01/27 03:01:20;;;;;;;37.00;16.60;;;-0.10;99.90;;;;;;4447557;28;655972;-71
2022/01/27 03:04:07;;;;;;;55.87;23.43;;;-0.10;99.90;;;;;;4446381;28;656631;-71
2022/01/27 03:06:55;;;;;;;55.17;25.23;;;-0.10;99.90;;;;;;4464765;28;656540;-71
2022/01/27 03:09:42;;;;;;;57.35;24.55;;;-0.10;99.90;;;;;;4446312;28;656609;-72
2022/01/27 03:12:32;;;;;;;34.20;14.63;;;-0.10;99.90;;;;;;4465235;28;657781;-71
2022/01/27 03:15:20;;;;;;;59.33;24.77;;;-0.10;99.90;;;;;;4445892;28;656820;-71
2022/01/27 03:18:07;;;;;;;30.33;13.40;;;-0.10;99.90;;;;;;4446694;28;656713;-70
2022/01/27 03:20:55;;;;;;;53.50;23.27;;;-0.10;99.90;;;;;;4469585;28;656498;-71
2022/01/27 03:23:42;;;;;;;50.03;21.27;;;-0.10;99.90;;;;;;4446163;28;656635;-71
2022/01/27 03:26:30;;;;;;;50.33;20.83;;;-0.10;99.90;;;;;;4465059;28;656618;-71
2022/01/27 03:29:19;;;;;;;54.78;22.95;;;-0.10;99.90;;;;;;4446055;28;657279;-71
2022/01/27 03:32:07;;;;;;;47.47;19.63;;;-0.10;99.90;;;;;;4445669;28;656270;-71
2022/01/27 03:34:55;;;;;;;49.53;20.40;;;-0.20;99.90;;;;;;4464657;28;657327;-71
2022/01/27 03:37:42;;;;;;;47.97;19.90;;;-0.10;99.90;;;;;;4446138;28;656780;-71
2022/01/27 03:40:30;;;;;;;47.47;19.37;;;-0.10;99.90;;;;;;4465054;28;657176;-70
2022/01/27 03:43:17;;;;;;;46.47;20.50;;;-0.10;99.90;;;;;;4454291;28;656947;-71
2022/01/27 03:46:06;;;;;;;42.03;20.07;;;-0.20;99.90;;;;;;4482303;28;657225;-71
2022/01/27 03:48:54;;;;;;;38.70;15.33;;;-0.20;99.90;;;;;;4459688;28;657397;-71
2022/01/27 03:51:42;;;;;;;43.53;17.77;;;-0.20;99.90;;;;;;4463492;28;656481;-71
2022/01/27 03:54:30;;;;;;;32.13;14.07;;;-0.20;99.90;;;;;;4487179;28;655982;-70
2022/01/27 03:57:18;;;;;;;40.20;18.40;;;-0.10;99.90;;;;;;4463256;28;656897;-71
2022/01/27 04:00:07;;;;;;;31.73;14.70;;;-0.20;99.90;;;;;;4486876;28;656422;-71
2022/01/27 04:03:03;;;;;;;28.40;12.77;;;-0.20;99.90;;;;;;4463193;28;657555;-70
2022/01/27 04:05:53;;;;;;;42.97;18.20;;;-0.20;99.90;;;;;;4461714;27;656664;-70
2022/01/27 04:08:41;;;;;;;42.73;17.77;;;-0.20;99.90;;;;;;4462635;27;656336;-71
2022/01/27 04:11:28;;;;;;;36.93;16.07;;;-0.20;99.90;;;;;;4463047;27;658121;-70
2022/01/27 04:14:16;;;;;;;41.10;16.73;;;-0.20;99.90;;;;;;4484275;27;656333;-71
2022/01/27 04:17:04;;;;;;;40.47;16.67;;;-0.20;99.90;;;;;;4486476;27;657090;-70
2022/01/27 04:19:53;;;;;;;39.13;17.33;;;-0.30;99.90;;;;;;4465481;27;656345;-71
2022/01/27 04:22:41;;;;;;;26.03;10.27;;;-0.20;99.90;;;;;;4476496;27;656630;-71
2022/01/27 04:25:29;;;;;;;35.53;16.67;;;-0.30;99.90;;;;;;4490228;27;657512;-71
2022/01/27 04:28:22;;;;;;;34.10;14.87;;;-0.30;99.90;;;;;;4466643;27;656629;-71
2022/01/27 04:31:11;;;;;;;41.63;19.27;;;-0.30;99.90;;;;;;4462860;27;656864;-70
2022/01/27 04:33:59;;;;;;;33.70;16.23;;;-0.30;99.90;;;;;;4462744;27;657911;-71
2022/01/27 04:36:48;;;;;;;39.07;17.53;;;-0.30;99.90;;;;;;4466746;27;656806;-71
2022/01/27 04:39:41;;;;;;;34.95;16.33;;;-0.30;99.90;;;;;;4489554;27;656076;-71
2022/01/27 04:42:43;;;;;;;26.53;10.43;;;-0.30;99.90;;;;;;4437298;27;657050;-70
2022/01/27 04:45:45;;;;;;;20.83;9.37;;;-0.30;99.90;;;;;;4460256;27;657588;-70
2022/01/27 04:48:38;;;;;;;38.53;14.93;;;-0.30;99.90;;;;;;4444258;27;656123;-71
2022/01/27 04:51:28;;;;;;;38.60;17.87;;;-0.30;99.90;;;;;;4481563;27;656439;-72
2022/01/27 04:54:27;;;;;;;29.17;13.87;;;-0.30;99.90;;;;;;4485404;27;657341;-71
2022/01/27 04:57:16;;;;;;;26.43;11.23;;;-0.30;99.90;;;;;;4465811;27;657014;-71
2022/01/27 05:00:09;;;;;;;44.90;18.90;;;-0.30;99.90;;;;;;4461750;27;657432;-71
2022/01/27 05:03:13;;;;;;;30.27;13.20;;;-0.30;99.90;;;;;;4439365;27;657617;-71
2022/01/27 05:06:01;;;;;;;42.63;16.87;;;-0.30;99.90;;;;;;4455438;27;657211;-71
2022/01/27 05:08:49;;;;;;;44.57;18.17;;;-0.30;99.90;;;;;;4489051;27;657964;-71
2022/01/27 05:11:45;;;;;;;42.13;18.43;;;-0.30;99.90;;;;;;4465661;27;656554;-71
2022/01/27 05:14:33;;;;;;;43.40;19.20;;;-0.30;99.90;;;;;;4466537;27;656622;-71
2022/01/27 05:17:20;;;;;;;55.00;20.47;;;-0.30;99.90;;;;;;4485450;27;656761;-71
2022/01/27 05:20:12;;;;;;;45.43;16.73;;;-0.30;99.90;;;;;;4465931;27;656564;-71
2022/01/27 05:23:01;;;;;;;24.50;11.47;;;-0.40;99.90;;;;;;4461396;27;656968;-70
2022/01/27 05:25:50;;;;;;;45.03;18.43;;;-0.30;99.90;;;;;;4461470;27;657631;-71
2022/01/27 05:28:41;;;;;;;47.17;19.40;;;-0.40;99.90;;;;;;4465589;27;656757;-71
2022/01/27 05:31:28;;;;;;;46.83;18.20;;;-0.30;99.90;;;;;;4464568;27;657247;-71
2022/01/27 05:34:16;;;;;;;46.07;20.10;;;-0.30;99.90;;;;;;4474760;27;656548;-71
2022/01/27 05:37:04;;;;;;;46.43;18.37;;;-0.30;99.90;;;;;;4484415;27;657712;-71
2022/01/27 05:39:52;;;;;;;42.93;20.00;;;-0.30;99.90;;;;;;4465790;27;656515;-71
2022/01/27 05:42:39;;;;;;;51.85;21.58;;;-0.30;99.90;;;;;;4487548;27;657674;-71
2022/01/27 05:45:28;;;;;;;47.53;19.20;;;-0.30;99.90;;;;;;4483572;27;656632;-72
2022/01/27 05:48:16;;;;;;;36.70;16.33;;;-0.30;99.90;;;;;;4495368;27;656837;-71
2022/01/27 05:51:04;;;;;;;45.17;19.53;;;-0.30;99.90;;;;;;4502411;27;658451;-71
2022/01/27 05:53:52;;;;;;;45.33;17.50;;;-0.20;99.90;;;;;;4482879;27;656855;-72
2022/01/27 05:56:39;;;;;;;40.63;16.53;;;-0.30;99.90;;;;;;4502383;27;657405;-71
2022/01/27 05:59:27;;;;;;;46.73;20.57;;;-0.30;99.90;;;;;;4482964;27;656418;-71
2022/01/27 06:02:20;;;;;;;53.17;20.90;;;-0.30;99.90;;;;;;4503185;27;656987;-71
2022/01/27 06:05:10;;;;;;;50.63;19.83;;;-0.30;99.90;;;;;;4455654;27;656886;-71
2022/01/27 06:07:59;;;;;;;50.73;21.57;;;-0.30;99.90;;;;;;4479089;27;657155;-71
2022/01/27 06:10:47;;;;;;;47.03;20.70;;;-0.30;99.90;;;;;;4483034;27;657069;-71
2022/01/27 06:13:36;;;;;;;44.43;17.53;;;-0.30;99.90;;;;;;4502005;27;656822;-70
2022/01/27 06:16:27;;;;;;;43.43;16.30;;;-0.30;99.90;;;;;;4480556;27;657098;-70
2022/01/27 06:19:20;;;;;;;49.30;20.40;;;-0.30;99.90;;;;;;4478251;27;656675;-70
2022/01/27 06:22:11;;;;;;;47.17;20.30;;;-0.30;99.90;;;;;;4455863;27;657518;-70
2022/01/27 06:24:59;;;;;;;49.07;20.47;;;-0.30;99.90;;;;;;4479244;27;657292;-70
2022/01/27 06:27:46;;;;;;;35.73;13.80;;;-0.30;99.90;;;;;;4482623;27;657285;-71
2022/01/27 06:30:35;;;;;;;51.40;21.33;;;-0.30;99.90;;;;;;4501768;27;657471;-70
2022/01/27 06:33:23;;;;;;;43.87;18.10;;;-0.20;99.90;;;;;;4482552;27;656690;-71
2022/01/27 06:36:12;;;;;;;48.40;21.52;;;-0.20;99.90;;;;;;4501255;27;657026;-70
2022/01/27 06:38:59;;;;;;;50.42;21.50;;;-0.20;99.90;;;;;;4478293;27;656811;-69
2022/01/27 06:41:47;;;;;;;47.07;18.93;;;-0.20;99.90;;;;;;4482495;27;656781;-71
2022/01/27 06:44:34;;;;;;;52.10;21.20;;;-0.20;99.90;;;;;;4496977;27;656614;-71
2022/01/27 06:47:22;;;;;;;50.80;21.40;;;-0.20;99.90;;;;;;4463953;27;657362;-71
2022/01/27 06:50:10;;;;;;;45.17;18.33;;;-0.20;99.90;;;;;;4483078;27;656862;-71
2022/01/27 06:53:06;;;;;;;29.33;12.97;;;-0.20;99.90;;;;;;4464111;27;656441;-70
2022/01/27 06:56:01;;;;;;;43.37;18.43;;;-0.20;99.90;;;;;;4464319;27;656239;-71
2022/01/27 06:58:53;;;;;;;47.70;20.73;;;-0.10;99.90;;;;;;4464260;27;656468;-70
2022/01/27 07:01:44;;;;;;;45.63;18.47;;;-0.10;99.90;;;;;;4449558;27;656440;-71
2022/01/27 07:04:32;;;;;;;43.03;16.80;;;-0.10;99.90;;;;;;4464109;27;656829;-70
2022/01/27 07:07:19;;;;;;;44.23;18.57;;;0.00;99.90;;;;;;4483971;27;657166;-70
2022/01/27 07:10:09;;;;;;;35.50;14.50;;;0.00;99.90;;;;;;4464884;27;655290;-70
2022/01/27 07:12:56;;;;;;;43.67;18.55;;;0.00;99.90;;;;;;4464116;27;655516;-71
2022/01/27 07:15:45;;;;;;;43.40;17.97;;;0.00;99.90;;;;;;4484303;27;656137;-70
2022/01/27 07:18:33;;;;;;;41.90;17.73;;;0.00;99.90;;;;;;4464756;27;655662;-70
2022/01/27 07:21:25;;;;;;;43.37;18.30;;;0.00;99.90;;;;;;4484050;27;656158;-70
2022/01/27 07:24:20;;;;;;;41.37;17.23;;;0.00;99.90;;;;;;4438116;27;655558;-70
2022/01/27 07:27:19;;;;;;;42.43;17.83;;;0.00;99.90;;;;;;4437892;27;656663;-70
2022/01/27 07:30:08;;;;;;;33.30;14.63;;;0.00;99.90;;;;;;4465234;27;655340;-71
2022/01/27 07:32:55;;;;;;;38.08;16.63;;;0.10;99.90;;;;;;4484614;27;655417;-70
2022/01/27 07:36:16;;;;;;;36.60;15.57;;;0.00;99.90;;;;;;4461667;27;656239;-70
2022/01/27 07:39:04;;;;;;;34.37;14.23;;;0.00;99.90;;;;;;4460449;27;656297;-70
2022/01/27 07:41:52;;;;;;;34.10;14.40;;;0.10;99.90;;;;;;4464574;27;655376;-71
2022/01/27 07:44:41;;;;;;;36.00;15.83;;;0.10;99.90;;;;;;4467066;28;656053;-70
2022/01/27 07:47:28;;;;;;;42.77;14.87;;;0.20;99.90;;;;;;4444199;28;655529;-71
2022/01/27 07:50:16;;;;;;;38.73;15.27;;;0.30;99.90;;;;;;4466317;28;655309;-70
2022/01/27 07:53:03;;;;;;;38.20;14.50;;;0.40;99.90;;;;;;4443856;28;656940;-70
2022/01/27 07:55:51;;;;;;;39.13;16.10;;;0.50;99.90;;;;;;4463349;28;655640;-71
2022/01/27 07:58:42;;;;;;;31.73;14.47;;;0.60;99.90;;;;;;4466653;28;657397;-70
2022/01/27 08:01:31;;;;;;;30.53;13.13;;;0.50;99.90;;;;;;4443905;28;655912;-70
2022/01/27 08:04:18;;;;;;;43.53;17.50;;;0.60;99.90;;;;;;4443945;28;656658;-70
2022/01/27 08:07:08;;;;;;;27.50;11.13;;;0.70;99.90;;;;;;4466655;28;655944;-69
2022/01/27 08:09:55;;;;;;;42.97;18.73;;;0.70;99.90;;;;;;4443603;28;655379;-69
2022/01/27 08:12:43;;;;;;;36.17;15.53;;;0.70;99.90;;;;;;4441969;28;655441;-70
2022/01/27 08:15:30;;;;;;;32.13;12.87;;;0.70;99.90;;;;;;4470719;28;655231;-70
2022/01/27 08:18:20;;;;;;;33.40;16.33;;;0.80;99.90;;;;;;4447871;28;655771;-70
2022/01/27 08:21:09;;;;;;;36.80;15.33;;;0.80;99.90;;;;;;4447725;28;655633;-70
2022/01/27 08:24:05;;;;;;;29.13;13.43;;;0.80;99.90;;;;;;4450784;28;655605;-71
2022/01/27 08:27:03;;;;;;;24.93;10.90;;;0.70;99.90;;;;;;4425459;28;656080;-70
2022/01/27 08:30:02;;;;;;;35.88;15.65;;;0.60;99.90;;;;;;4444644;28;655949;-70
2022/01/27 08:33:00;;;;;;;34.47;15.80;;;0.70;99.90;;;;;;4437003;28;655881;-72
2022/01/27 08:35:49;;;;;;;38.10;15.67;;;0.70;99.90;;;;;;4420744;28;656137;-72
2022/01/27 08:38:43;;;;;;;29.67;11.83;;;0.90;99.90;;;;;;4447690;28;655153;-72
2022/01/27 08:41:30;;;;;;;35.45;14.02;;;1.00;99.90;;;;;;4443439;28;656219;-70
2022/01/27 08:44:18;;;;;;;24.60;11.07;;;1.00;99.90;;;;;;4461748;28;655972;-70
2022/01/27 08:47:07;;;;;;;24.50;10.20;;;1.10;99.90;;;;;;4497963;27;655291;-71
2022/01/27 08:49:54;;;;;;;32.80;13.70;;;1.20;99.90;;;;;;4502537;27;655395;-70
2022/01/27 08:52:44;;;;;;;18.30;8.17;;;1.30;99.90;;;;;;4485759;27;655427;-71
2022/01/27 08:55:32;;;;;;;30.60;13.33;;;1.20;99.90;;;;;;4486331;27;654565;-73
2022/01/27 08:58:20;;;;;;;29.90;12.77;;;1.10;99.90;;;;;;4505830;27;655284;-71
2022/01/27 09:01:08;;;;;;;21.73;9.33;;;1.10;99.90;;;;;;4481331;27;656317;-71
2022/01/27 09:03:56;;;;;;;22.33;9.27;;;1.00;99.90;;;;;;4504806;27;654321;-70
2022/01/27 09:06:47;;;;;;;25.50;10.80;;;1.00;99.90;;;;;;4482558;27;656385;-70
2022/01/27 09:09:36;;;;;;;29.10;12.93;;;1.20;99.90;;;;;;4478058;27;656013;-70
2022/01/27 09:12:24;;;;;;;23.20;10.80;;;1.30;99.90;;;;;;4480569;27;656401;-70
2022/01/27 09:15:12;;;;;;;24.23;7.40;;;1.40;99.90;;;;;;4485103;27;655296;-70
2022/01/27 09:18:00;;;;;;;26.93;11.67;;;1.20;99.90;;;;;;4505431;27;654998;-70
2022/01/27 09:20:47;;;;;;;18.13;7.60;;;1.10;99.90;;;;;;4484226;27;656013;-72
2022/01/27 09:23:35;;;;;;;18.47;8.83;;;1.00;99.90;;;;;;4505598;27;655890;-73
2022/01/27 09:26:50;;;;;;;28.50;12.17;;;1.00;99.90;;;;;;4486667;27;654521;-72
2022/01/27 09:29:38;;;;;;;25.40;10.07;;;1.00;99.90;;;;;;4484840;27;655284;-72
2022/01/27 09:32:26;;;;;;;26.97;11.60;;;1.00;99.90;;;;;;4508010;27;655386;-70
2022/01/27 09:35:13;;;;;;;17.43;6.13;;;1.00;99.90;;;;;;4484865;27;656091;-73
2022/01/27 09:38:01;;;;;;;21.93;8.80;;;0.90;99.90;;;;;;4502133;27;654820;-71
2022/01/27 09:40:51;;;;;;;18.77;8.03;;;0.90;99.90;;;;;;4505023;27;654645;-73
2022/01/27 09:43:52;;;;;;;14.20;5.87;;;0.90;99.90;;;;;;4485238;27;654946;-72
2022/01/27 09:46:41;;;;;;;20.07;6.63;;;0.90;99.90;;;;;;4481651;27;655377;-72
2022/01/27 09:49:36;;;;;;;22.33;8.90;;;0.90;99.90;;;;;;4482394;27;655263;-70
2022/01/27 09:52:24;;;;;;;13.37;5.53;;;0.90;99.90;;;;;;4458846;27;655173;-72
2022/01/27 09:55:12;;;;;;;23.73;10.73;;;1.00;99.90;;;;;;4486551;27;654712;-72
2022/01/27 09:58:01;;;;;;;20.00;9.82;;;1.00;99.90;;;;;;4503541;27;656430;-69
2022/01/27 10:00:50;;;;;;;31.90;9.30;;;1.00;99.90;;;;;;4481390;27;654757;-73
2022/01/27 10:03:51;;;;;;;17.30;8.03;;;0.90;99.90;;;;;;4483136;27;654900;-71
2022/01/27 10:06:39;;;;;;;24.37;10.17;;;0.80;99.90;;;;;;4462068;27;654419;-70
2022/01/27 10:09:29;;;;;;;23.27;10.00;;;0.90;99.90;;;;;;4488415;27;656165;-72
2022/01/27 10:12:17;;;;;;;17.97;8.40;;;1.00;99.90;;;;;;4484211;27;655358;-73
2022/01/27 10:15:06;;;;;;;17.67;8.33;;;1.00;99.90;;;;;;4502689;27;654982;-72
2022/01/27 10:18:16;;;;;;;15.80;7.10;;;1.00;99.90;;;;;;4481156;27;655513;-73
2022/01/27 10:21:04;;;;;;;16.70;6.70;;;0.90;99.90;;;;;;4480089;27;655724;-70
2022/01/27 10:23:53;;;;;;;15.40;6.50;;;0.90;99.90;;;;;;4484295;27;654845;-73
2022/01/27 10:26:43;;;;;;;15.57;6.87;;;0.90;99.90;;;;;;4504860;27;654655;-70
2022/01/27 10:29:48;;;;;;;18.87;6.80;;;0.90;99.90;;;;;;4472025;27;654299;-71
2022/01/27 10:32:41;;;;;;;18.77;8.30;;;0.80;99.90;;;;;;4477523;27;654760;-72
2022/01/27 10:35:30;;;;;;;20.30;7.37;;;0.80;99.90;;;;;;4480679;27;655309;-70
2022/01/27 10:38:18;;;;;;;15.97;7.00;;;0.80;99.90;;;;;;4480611;27;654296;-72
2022/01/27 10:41:06;;;;;;;19.73;7.63;;;0.80;99.90;;;;;;4503715;27;654307;-71
2022/01/27 10:44:06;;;;;;;16.73;6.90;;;0.90;99.90;;;;;;4480754;27;655528;-72
2022/01/27 10:47:04;;;;;;;15.23;6.40;;;1.00;99.90;;;;;;4473543;27;654647;-68
2022/01/27 10:49:57;;;;;;;18.33;6.97;;;1.10;99.90;;;;;;4484548;27;654474;-69
2022/01/27 10:52:56;;;;;;;15.70;5.67;;;1.10;99.90;;;;;;4481288;27;655311;-72
2022/01/27 10:55:45;;;;;;;13.73;6.53;;;1.00;99.90;;;;;;4480835;27;654915;-70
2022/01/27 10:58:32;;;;;;;13.50;5.40;;;1.00;99.90;;;;;;4484518;27;655129;-72
2022/01/27 11:01:24;;;;;;;18.63;8.23;;;1.00;99.90;;;;;;4507593;27;654096;-73
2022/01/27 11:04:13;;;;;;;17.47;7.77;;;1.00;99.90;;;;;;4458267;27;654812;-73
2022/01/27 11:07:02;;;;;;;19.83;7.97;;;1.00;99.90;;;;;;4503560;27;654994;-74
2022/01/27 11:09:52;;;;;;;20.60;8.23;;;1.00;99.90;;;;;;4480513;27;655477;-71
2022/01/27 11:12:41;;;;;;;18.67;7.57;;;1.10;99.90;;;;;;4480739;27;654810;-74
2022/01/27 11:15:30;;;;;;;17.50;7.40;;;0.90;99.90;;;;;;4480558;27;655684;-73
2022/01/27 11:18:20;;;;;;;16.90;7.60;;;0.90;99.90;;;;;;4484717;27;654823;-71
2022/01/27 11:21:13;;;;;;;16.23;6.80;;;1.00;99.90;;;;;;4484188;27;655068;-71
2022/01/27 11:24:06;;;;;;;18.07;6.87;;;1.00;99.90;;;;;;4480415;27;654916;-71
2022/01/27 11:26:56;;;;;;;15.20;6.00;;;1.00;99.90;;;;;;4480443;27;655028;-72
2022/01/27 11:29:48;;;;;;;21.10;8.13;;;1.00;99.90;;;;;;4480068;27;655999;-69
2022/01/27 11:32:39;;;;;;;19.07;7.60;;;1.00;99.90;;;;;;4480549;27;654693;-72
2022/01/27 11:35:27;;;;;;;14.53;5.27;;;1.00;99.90;;;;;;4457283;27;654715;-73
2022/01/27 11:38:15;;;;;;;22.20;9.03;;;0.90;99.90;;;;;;4503172;27;655321;-71
2022/01/27 11:41:03;;;;;;;12.33;5.67;;;0.90;99.90;;;;;;4484202;27;654842;-73
2022/01/27 11:43:52;;;;;;;14.33;6.47;;;0.80;99.90;;;;;;4502851;27;654440;-73
2022/01/27 11:46:45;;;;;;;14.27;5.83;;;0.80;99.90;;;;;;4479969;27;655304;-69
2022/01/27 11:49:54;;;;;;;17.30;6.50;;;0.80;99.90;;;;;;4460322;27;655193;-69
2022/01/27 11:52:49;;;;;;;8.80;3.53;;;0.90;99.90;;;;;;4457814;27;655347;-73
2022/01/27 11:55:46;;;;;;;15.37;6.40;;;0.90;99.90;;;;;;4465428;27;653229;-72
2022/01/27 11:58:44;;;;;;;18.93;6.80;;;0.90;99.90;;;;;;4453780;27;655500;-71
2022/01/27 12:01:34;;;;;;;15.30;7.03;;;0.90;99.90;;;;;;4460992;27;654375;-72
2022/01/27 12:04:26;;;;;;;13.47;6.43;;;0.90;99.90;;;;;;4483703;27;654551;-72
2022/01/27 12:07:14;;;;;;;12.57;6.40;;;0.90;99.90;;;;;;4480128;27;655650;-69
2022/01/27 12:10:02;;;;;;;13.63;4.83;;;1.00;99.90;;;;;;4483844;27;654520;-71
2022/01/27 12:12:50;;;;;;;14.63;6.73;;;0.90;99.90;;;;;;4502676;27;655271;-70
2022/01/27 12:16:11;;;;;;;19.70;7.77;;;1.00;99.90;;;;;;4483974;27;654921;-72
2022/01/27 12:19:00;;;;;;;12.87;5.63;;;1.00;99.90;;;;;;4484258;27;654412;-68
2022/01/27 12:22:01;;;;;;;13.97;6.30;;;0.90;99.90;;;;;;4480241;27;655286;-73
2022/01/27 12:24:52;;;;;;;20.17;8.63;;;0.90;99.90;;;;;;4483856;27;654971;-71
2022/01/27 12:27:41;;;;;;;17.73;8.03;;;0.90;99.90;;;;;;4483123;27;655256;-69
2022/01/27 12:30:29;;;;;;;20.90;9.00;;;0.90;99.90;;;;;;4482289;27;655517;-68
2022/01/27 12:33:19;;;;;;;15.67;6.17;;;0.90;99.90;;;;;;4487974;27;654888;-72
2022/01/27 12:36:09;;;;;;;23.80;9.63;;;0.90;99.90;;;;;;4485914;27;654457;-71
2022/01/27 12:38:56;;;;;;;15.35;6.00;;;0.90;99.90;;;;;;4491391;27;654807;-71
2022/01/27 12:41:46;;;;;;;21.80;9.17;;;1.00;99.90;;;;;;4505771;27;655752;-70
2022/01/27 12:44:34;;;;;;;20.33;8.37;;;0.90;99.90;;;;;;4482329;27;655138;-70
2022/01/27 12:47:22;;;;;;;23.63;10.00;;;1.00;99.90;;;;;;4480502;27;654592;-71
2022/01/27 12:50:11;;;;;;;24.33;8.77;;;0.90;99.90;;;;;;4489880;27;655713;-70
2022/01/27 12:53:03;;;;;;;24.70;11.20;;;0.80;99.90;;;;;;4465509;27;656076;-72
2022/01/27 12:55:50;;;;;;;21.27;8.90;;;0.80;99.90;;;;;;4463338;27;655521;-72
2022/01/27 12:58:38;;;;;;;25.47;11.23;;;0.80;99.90;;;;;;4468965;27;655427;-70
2022/01/27 13:01:26;;;;;;;20.47;8.07;;;0.80;99.90;;;;;;4478222;27;656055;-71
2022/01/27 13:04:14;;;;;;;16.63;7.13;;;0.70;99.90;;;;;;4491740;27;655809;-73
2022/01/27 13:07:02;;;;;;;26.37;11.83;;;0.70;99.90;;;;;;4468497;27;654660;-70
2022/01/27 13:10:00;;;;;;;19.87;8.97;;;0.70;99.90;;;;;;4486481;27;656439;-72
2022/01/27 13:12:51;;;;;;;24.03;9.37;;;0.70;99.90;;;;;;4441241;27;655775;-71
2022/01/27 13:15:38;;;;;;;25.20;10.60;;;0.70;99.90;;;;;;4464169;27;655515;-71
2022/01/27 13:18:30;;;;;;;30.33;12.67;;;0.70;99.90;;;;;;4485877;27;655580;-72
2022/01/27 13:21:23;;;;;;;25.57;11.67;;;0.70;99.90;;;;;;4440253;27;656940;-71
2022/01/27 13:24:15;;;;;;;28.30;10.10;;;0.70;99.90;;;;;;4463814;27;656222;-70
2022/01/27 13:27:08;;;;;;;25.17;10.67;;;0.70;99.90;;;;;;4444480;27;655783;-69
2022/01/27 13:29:59;;;;;;;28.20;12.03;;;0.70;99.90;;;;;;4463158;27;655609;-70
2022/01/27 13:32:47;;;;;;;32.03;13.40;;;0.70;99.90;;;;;;4446099;27;655376;-71
2022/01/27 13:35:35;;;;;;;23.67;10.27;;;0.70;99.90;;;;;;4485684;27;656083;-69
2022/01/27 13:38:25;;;;;;;29.10;12.70;;;0.70;99.90;;;;;;4462594;27;656465;-70
2022/01/27 13:41:23;;;;;;;22.60;9.83;;;0.70;99.90;;;;;;4462734;27;656569;-69
2022/01/27 13:44:13;;;;;;;22.90;9.70;;;0.70;99.90;;;;;;4464059;27;654758;-70
2022/01/27 13:47:04;;;;;;;30.90;12.87;;;0.70;99.90;;;;;;4463892;27;654117;-70
2022/01/27 13:49:52;;;;;;;25.30;10.57;;;0.70;99.90;;;;;;4448681;27;655653;-70
2022/01/27 13:52:41;;;;;;;28.93;12.80;;;0.70;99.90;;;;;;4486736;27;655927;-71
2022/01/27 13:55:28;;;;;;;26.97;11.03;;;0.70;99.90;;;;;;4462674;27;657310;-69
2022/01/27 13:58:25;;;;;;;26.27;11.07;;;0.70;99.90;;;;;;4477677;27;656157;-74
2022/01/27 14:01:15;;;;;;;34.22;13.80;;;0.80;99.90;;;;;;4466550;27;655800;-69
2022/01/27 14:04:02;;;;;;;26.75;10.32;;;0.70;99.90;;;;;;4466383;27;655561;-71
2022/01/27 14:06:54;;;;;;;34.97;14.27;;;0.70;99.90;;;;;;4485299;27;655385;-71
2022/01/27 14:09:42;;;;;;;32.23;12.70;;;0.80;99.90;;;;;;4442861;27;654928;-74
2022/01/27 14:12:47;;;;;;;36.67;15.13;;;0.80;99.90;;;;;;4485186;27;655644;-72
2022/01/27 14:15:35;;;;;;;31.77;11.63;;;0.70;99.90;;;;;;4462283;27;655785;-71
2022/01/27 14:18:26;;;;;;;27.07;11.10;;;0.80;99.90;;;;;;4462047;27;656553;-70
2022/01/27 14:21:20;;;;;;;31.60;11.93;;;0.80;99.90;;;;;;4461881;27;656273;-70
2022/01/27 14:24:09;;;;;;;33.78;14.00;;;0.70;99.90;;;;;;4465921;27;655734;-69
2022/01/27 14:27:01;;;;;;;36.23;14.30;;;0.70;99.90;;;;;;4466517;27;655570;-69
2022/01/27 14:29:49;;;;;;;28.43;11.23;;;0.70;99.90;;;;;;4462404;27;655911;-68
2022/01/27 14:32:37;;;;;;;30.13;12.77;;;0.70;99.90;;;;;;4466278;27;655473;-70
2022/01/27 14:35:26;;;;;;;32.87;13.83;;;0.60;99.90;;;;;;4484990;27;655720;-69
2022/01/27 14:38:14;;;;;;;30.40;12.13;;;0.60;99.90;;;;;;4465973;27;656566;-71
2022/01/27 14:41:01;;;;;;;31.80;12.20;;;0.60;99.90;;;;;;4470183;27;656111;-72
2022/01/27 14:43:50;;;;;;;32.63;12.13;;;0.60;99.90;;;;;;4488563;27;656443;-68
2022/01/27 14:46:41;;;;;;;37.27;14.33;;;0.50;99.90;;;;;;4465375;27;656056;-71
2022/01/27 14:49:29;;;;;;;30.80;11.60;;;0.50;99.90;;;;;;4467276;27;656039;-71